Latest Weather Observations for PORTABLE QFRG

IDQ60801

Issued at 10:52 pm EST Saturday 22 September 2018 (issued every 10 minutes, with the page automatically refreshed every 10 minutes)

About weather observations | Map of weather stations | Latest weather observations for QLD | Other Formats
Station Details ID: 250061 Name: PORTABLE QFRG Lat: -19.36 Lon: 146.89 Height: 321.0 m
Data from the previous 72 hours. | See also: Recent months for locations in Queensland
Date/Time
EST
Temp
°C
App
Temp
°C
Dew
Point
°C
Rel
Hum
%
Delta-T
°C
Wind Press
QNH
hPa
Press
MSL
hPa
Rain since
9am
mm
Dir  Spd
km/h
Gust
km/h
Spd
kts
Gust
kts
22/10:30pm 20.3 21.2 13.9 66 3.7 SE 2 4 1 2 - - 0.0
22/10:00pm 20.7 22.2 14.7 68 3.6 CALM 0 0 0 0 - - 0.0
22/09:30pm 21.8 22.4 14.2 62 4.5 E 4 6 2 3 - - 0.0
22/09:00pm 21.4 22.3 13.9 62 4.4 ESE 2 6 1 3 - - 0.0
22/08:30pm 21.3 23.1 15.4 69 3.6 CALM 0 0 0 0 - - 0.0
22/08:00pm 21.4 23.1 15.1 67 3.8 CALM 0 0 0 0 - - 0.0
22/07:30pm 21.5 23.1 14.8 65 4.0 CALM 0 2 0 1 - - 0.0
22/07:00pm 22.3 23.0 14.4 61 4.7 ESE 4 6 2 3 - - 0.0
22/06:30pm 22.8 23.1 14.4 59 5.0 E 6 7 3 4 - - 0.0
22/06:00pm 23.1 23.6 14.9 60 4.9 E 6 9 3 5 - - 0.0
22/05:30pm 23.7 23.9 14.3 55 5.6 ENE 6 9 3 5 - - 0.0
22/05:00pm 24.3 24.9 15.4 57 5.4 ENE 6 9 3 5 - - 0.0
22/04:30pm 25.0 24.9 13.4 48 6.9 ENE 6 7 3 4 - - 0.0
22/04:00pm 25.5 25.0 12.1 43 7.8 ENE 6 7 3 4 - - 0.0
22/03:30pm 25.6 24.7 11.3 40 8.2 ENE 7 9 4 5 - - 0.0
22/03:00pm 27.0 26.7 12.7 41 8.4 ENE 6 9 3 5 - - 0.0
22/02:30pm 27.4 27.4 13.5 42 8.3 ENE 6 9 3 5 - - 0.0
22/02:00pm 27.8 27.3 12.6 39 9.0 E 7 9 4 5 - - 0.0
22/01:30pm 28.3 28.1 13.7 40 8.8 ENE 7 9 4 5 - - 0.0
22/01:00pm 26.8 26.5 13.2 43 8.1 E 7 9 4 5 - - 0.0
22/12:30pm 27.3 26.9 12.9 41 8.5 ENE 7 9 4 5 - - 0.0
22/12:00pm 26.7 26.6 13.9 45 7.7 E 7 11 4 6 - - 0.0
22/11:30am 27.4 26.9 12.6 40 8.7 E 7 9 4 5 - - 0.0
22/11:00am 26.5 26.5 13.5 44 7.8 E 6 11 3 6 - - 0.0
22/10:30am 25.9 25.6 13.4 46 7.4 ESE 7 13 4 7 - - 0.0
22/10:00am 26.5 26.5 13.7 45 7.7 ESE 6 9 3 5 - - 0.0
22/09:30am 26.1 25.7 13.1 44 7.7 ESE 7 9 4 5 - - 0.0
22/09:00am 25.2 25.0 13.6 48 6.9 SE 7 9 4 5 - - 0.0
22/08:30am 24.5 24.5 13.5 50 6.5 E 6 7 3 4 - - 0.0
22/08:00am 23.3 23.8 13.9 55 5.6 ESE 4 6 2 3 - - 0.0
22/07:30am 20.2 22.3 16.2 78 2.4 CALM 0 0 0 0 - - 0.0
22/07:00am 16.3 18.0 15.2 93 0.6 CALM 0 2 0 1 - - 0.0
22/06:30am 15.3 16.6 14.1 92 0.7 CALM 0 0 0 0 - - 0.0
22/06:00am 15.2 16.5 14.0 92 0.7 CALM 0 0 0 0 - - 0.0
22/05:30am 15.4 16.7 14.1 92 0.7 CALM 0 0 0 0 - - 0.0
22/05:00am 15.6 16.9 14.2 91 0.8 CALM 0 0 0 0 - - 0.0
22/04:30am 16.0 17.4 14.5 91 0.9 CALM 0 0 0 0 - - 0.0
22/04:00am 16.3 17.9 14.8 91 0.9 CALM 0 0 0 0 - - 0.0
22/03:30am 16.3 17.9 14.8 91 0.9 CALM 0 0 0 0 - - 0.0
22/03:00am 16.0 17.4 14.5 91 0.9 CALM 0 0 0 0 - - 0.0
22/02:30am 15.9 17.3 14.3 90 0.9 CALM 0 0 0 0 - - 0.0
22/02:00am 16.3 17.7 14.4 88 1.1 CALM 0 0 0 0 - - 0.0
22/01:30am 16.3 17.7 14.5 89 1.0 CALM 0 0 0 0 - - 0.0
22/01:00am 16.6 18.1 14.7 88 1.1 CALM 0 0 0 0 - - 0.0
22/12:30am 16.9 18.6 15.3 90 0.9 CALM 0 0 0 0 - - 0.0
22/12:00am 17.1 18.9 15.6 91 0.9 CALM 0 0 0 0 - - 0.0
 
Date/Time
EST
Temp
°C
App
Temp
°C
Dew
Point
°C
Rel
Hum
%
Delta-T
°C
Wind Press
QNH
hPa
Press
MSL
hPa
Rain since
9am
mm
Dir  Spd
km/h
Gust
km/h
Spd
kts
Gust
kts
21/11:30pm 17.1 18.9 15.5 90 0.9 CALM 0 0 0 0 - - 0.0
21/11:00pm 17.4 19.2 15.6 89 1.1 CALM 0 0 0 0 - - 0.0
21/10:30pm 17.8 19.7 15.8 88 1.2 CALM 0 0 0 0 - - 0.0
21/10:00pm 18.1 19.9 15.5 85 1.5 CALM 0 0 0 0 - - 0.0
21/09:30pm 19.0 21.0 15.9 82 1.9 CALM 0 0 0 0 - - 0.0
21/09:00pm 20.1 21.9 15.6 75 2.7 CALM 0 0 0 0 - - 0.0
21/08:30pm 19.9 21.9 15.9 78 2.4 CALM 0 2 0 1 - - 0.0
21/08:00pm 19.9 22.2 16.8 82 1.9 CALM 0 0 0 0 - - 0.0
21/07:30pm 20.8 23.2 17.0 79 2.3 CALM 0 0 0 0 - - 0.0
21/07:00pm 22.1 24.5 17.0 73 3.2 CALM 0 2 0 1 - - 0.0
21/06:30pm 23.0 25.2 16.6 67 4.0 CALM 0 2 0 1 - - 0.0
21/06:00pm 24.2 26.1 16.6 62 4.7 NE 2 4 1 2 - - 0.0
21/05:30pm 25.5 26.9 16.5 57 5.6 NE 4 6 2 3 - - 0.0
21/05:00pm 26.3 27.4 15.7 52 6.5 N 4 7 2 4 - - 0.0
21/04:30pm 26.4 27.7 16.1 53 6.4 N 4 6 2 3 - - 0.0
21/04:00pm 27.0 28.2 15.9 50 6.9 N 4 6 2 3 - - 0.0
21/03:30pm 28.6 29.3 15.5 45 8.1 ENE 6 9 3 5 - - 0.0
21/03:00pm 28.3 29.0 14.6 43 8.4 NE 4 6 2 3 - - 0.0
21/02:30pm 29.0 29.0 13.6 38 9.3 ENE 6 7 3 4 - - 0.0
21/02:00pm 29.1 29.6 15.1 42 8.7 ENE 6 9 3 5 - - 0.0
21/01:30pm 29.1 30.2 16.7 47 7.9 ENE 6 9 3 5 - - 0.0
21/01:00pm 29.2 29.6 14.8 41 8.9 ENE 6 9 3 5 - - 0.0
21/12:30pm 29.0 29.2 14.8 42 8.7 E 7 9 4 5 - - 0.0
21/12:00pm 28.9 29.4 15.5 44 8.3 ENE 7 11 4 6 - - 0.0
21/11:30am 29.0 29.9 16.0 45 8.1 E 6 9 3 5 - - 0.0
21/11:00am 29.6 30.8 16.9 46 8.1 ENE 6 9 3 5 - - 0.0
21/10:30am 28.8 29.1 14.6 42 8.7 ENE 6 7 3 4 - - 0.0
21/10:00am 28.3 29.1 15.8 46 7.8 E 6 7 3 4 - - 0.0
21/09:30am 27.0 27.5 14.9 47 7.4 E 6 9 3 5 - - 0.0
21/09:00am 25.7 26.6 16.0 55 6.0 SE 6 7 3 4 - - 0.0
21/08:30am 25.1 26.3 16.9 60 5.1 E 6 9 3 5 - - 0.0
21/08:00am 22.8 24.4 16.9 69 3.7 ESE 4 6 2 3 - - 0.0
21/07:30am 19.4 20.7 14.2 72 3.0 CALM 0 0 0 0 - - 0.0
21/07:00am 15.2 16.3 13.5 89 1.0 CALM 0 0 0 0 - - 0.0
21/06:30am 13.7 14.3 11.9 89 1.0 CALM 0 2 0 1 - - 0.0
21/06:00am 13.6 14.2 11.8 89 1.0 CALM 0 0 0 0 - - 0.0
21/05:30am 13.7 14.4 12.1 90 0.9 CALM 0 0 0 0 - - 0.0
21/05:00am 14.2 15.1 12.8 91 0.8 CALM 0 0 0 0 - - 0.0
21/04:30am 14.1 14.9 12.5 90 0.9 CALM 0 0 0 0 - - 0.0
21/04:00am 14.3 15.1 12.7 90 0.9 CALM 0 0 0 0 - - 0.0
21/03:30am 14.6 15.6 13.1 91 0.8 CALM 0 0 0 0 - - 0.0
21/03:00am 14.9 16.0 13.4 91 0.8 CALM 0 0 0 0 - - 0.0
21/02:30am 15.0 16.1 13.4 90 0.9 CALM 0 0 0 0 - - 0.0
21/02:00am 15.1 16.2 13.4 89 1.0 CALM 0 0 0 0 - - 0.0
21/01:30am 15.5 16.7 13.8 90 1.0 CALM 0 0 0 0 - - 0.0
21/01:00am 15.9 17.3 14.3 90 0.9 CALM 0 0 0 0 - - 0.0
21/12:30am 16.1 17.5 14.4 90 1.0 CALM 0 0 0 0 - - 0.0
21/12:00am 16.5 18.0 14.7 89 1.1 CALM 0 0 0 0 - - 0.0
 
Date/Time
EST
Temp
°C
App
Temp
°C
Dew
Point
°C
Rel
Hum
%
Delta-T
°C
Wind Press
QNH
hPa
Press
MSL
hPa
Rain since
9am
mm
Dir  Spd
km/h
Gust
km/h
Spd
kts
Gust
kts
20/11:30pm 16.9 18.5 15.0 88 1.1 CALM 0 0 0 0 - - 0.0
20/11:00pm 17.1 18.8 15.3 89 1.1 CALM 0 0 0 0 - - 0.0
20/10:30pm 17.2 18.9 15.1 87 1.2 CALM 0 0 0 0 - - 0.0
20/10:00pm 17.5 19.3 15.5 88 1.2 CALM 0 0 0 0 - - 0.0
20/09:30pm 18.0 20.1 16.2 89 1.1 CALM 0 0 0 0 - - 0.0
20/09:00pm 18.5 20.7 16.6 89 1.2 CALM 0 0 0 0 - - 0.0
20/08:30pm 19.0 21.3 16.7 86 1.4 CALM 0 0 0 0 - - 0.0
20/08:00pm 19.7 22.1 17.1 85 1.6 CALM 0 0 0 0 - - 0.0
20/07:30pm 20.4 22.9 17.2 82 2.0 CALM 0 0 0 0 - - 0.0
20/07:00pm 21.5 24.1 17.4 77 2.6 CALM 0 0 0 0 - - 0.0
20/06:30pm 23.0 25.3 16.7 67 3.9 CALM 0 0 0 0 - - 0.0
20/06:00pm 24.6 26.2 15.9 58 5.4 NW 2 4 1 2 - - 0.0
20/05:30pm 26.6 28.3 16.2 52 6.5 NW 2 4 1 2 - - 0.0
20/05:00pm 27.4 28.5 15.6 48 7.3 ENE 4 4 2 2 - - 0.0
20/04:30pm 28.3 29.4 15.5 45 7.9 ENE 4 6 2 3 - - 0.0
20/04:00pm 29.1 29.9 14.8 41 8.8 NNE 4 7 2 4 - - 0.0
20/03:30pm 30.1 31.0 15.1 40 9.3 ENE 4 7 2 4 - - 0.0
20/03:00pm 29.7 30.4 15.5 42 8.9 NE 6 7 3 4 - - 0.0
20/02:30pm 30.1 31.1 16.3 43 8.7 ENE 6 7 3 4 - - 0.0
20/02:00pm 30.6 31.1 15.1 39 9.6 ENE 6 7 3 4 - - 0.0
20/01:30pm 31.7 32.9 15.9 38 10.0 NE 4 7 2 4 - - 0.0
20/01:00pm 31.1 31.9 15.8 39 9.6 NE 6 6 3 3 - - 0.0
20/12:30pm 30.9 32.2 17.0 43 8.9 ENE 6 7 3 4 - - 0.0
20/12:00pm 30.8 32.0 16.0 40 9.3 NW 4 6 2 3 - - 0.0
20/11:30am 30.7 32.2 16.6 42 9.0 N 4 4 2 2 - - 0.0
20/11:00am 29.6 30.4 14.8 40 9.1 ENE 4 4 2 2 - - 0.0
20/10:30am 29.1 30.0 15.0 42 8.7 SSW 4 4 2 2 - - 0.0
20/10:00am 27.9 28.5 15.3 46 7.8 ESE 6 7 3 4 - - 0.0
20/09:30am 27.2 28.7 16.7 52 6.6 NE 4 6 2 3 - - 0.0
20/09:00am 26.0 27.7 17.1 58 5.6 ESE 4 6 2 3 - - 0.0
20/08:30am 25.3 27.2 16.8 59 5.3 ENE 2 4 1 2 - - 0.0
20/08:00am 23.3 25.8 17.3 69 3.8 CALM 0 2 0 1 - - 0.0
20/07:30am 20.1 22.8 17.7 86 1.5 CALM 0 0 0 0 - - 0.0
20/07:00am 17.0 19.0 16.0 94 0.6 CALM 0 0 0 0 - - 0.0
20/06:30am 15.9 17.5 14.9 94 0.6 CALM 0 0 0 0 - - 0.0
20/06:00am 15.9 17.5 14.9 94 0.6 CALM 0 0 0 0 - - 0.0
20/05:30am 16.0 17.6 14.9 93 0.6 CALM 0 0 0 0 - - 0.0
20/05:00am 16.4 18.1 15.3 93 0.6 CALM 0 0 0 0 - - 0.0
20/04:30am 16.5 18.3 15.4 93 0.6 CALM 0 0 0 0 - - 0.0
20/04:00am 16.2 17.9 15.2 94 0.6 CALM 0 0 0 0 - - 0.0
20/03:30am 16.2 17.9 15.2 94 0.6 CALM 0 0 0 0 - - 0.0
20/03:00am 15.8 17.4 14.8 94 0.6 CALM 0 0 0 0 - - 0.0
20/02:30am 15.8 17.3 14.7 93 0.6 CALM 0 0 0 0 - - 0.0
20/02:00am 15.8 17.3 14.7 93 0.6 CALM 0 0 0 0 - - 0.0
20/01:30am 15.9 17.5 14.8 93 0.6 CALM 0 0 0 0 - - 0.0
20/01:00am 16.2 17.8 15.0 93 0.7 CALM 0 0 0 0 - - 0.0
20/12:30am 16.4 18.1 15.2 93 0.7 CALM 0 0 0 0 - - 0.0
20/12:00am 16.5 18.2 15.2 92 0.8 CALM 0 0 0 0 - - 0.0
 
Date/Time
EST
Temp
°C
App
Temp
°C
Dew
Point
°C
Rel
Hum
%
Delta-T
°C
Wind Press
QNH
hPa
Press
MSL
hPa
Rain since
9am
mm
Dir  Spd
km/h
Gust
km/h
Spd
kts
Gust
kts
19/11:30pm 16.6 18.3 15.3 92 0.8 CALM 0 0 0 0 - - 0.0
19/11:00pm 16.8 18.6 15.5 92 0.8 CALM 0 0 0 0 - - 0.0

Other Formats:

Comma delimited format used in spreadsheet applications
http://www.bom.gov.au/fwo/IDQ60801/IDQ60801.99115.axf

JavaScript Object Notation format (JSON) in row-major order
http://www.bom.gov.au/fwo/IDQ60801/IDQ60801.99115.json